Mount Meridian, Indiana
Current Conditions -  °F | °C
As of 7:55 AM on Friday 24 Oct 2014 (Local Time) from K4I7 Reporting Station
Overcast Overcast  
Wind Chill: 43°   Ceiling: 2900
Heat Index: 43°   Visibility: 7mi
Dew Point: 41°   Wind: 0mph
Humidity: 93%   Direction: NA
Pressure: 30.11"   Gusts: NA
Location:  39.6767°N, 86.9214°W
Report Text: K4I7 241155Z AUTO 00000KT 7SM BKN029 OVC050 06/05 A3011 RMK AO2
Loading
Personal Weather Stations






























Interactive Weather Map
Tropical Storm Tracking
New forecast layout! Learn more

10-Day Weather Forecast

Advertisements
Track Severe Weather on mobile